Time;durP1;ratioP1;P1;durP2;ratioP2;P2;SDS_P1;SDS_P2;PMS_P1;PMS_P2;Temp;Humidity;BMP_temperature;BMP_pressure;BME280_temperature;BME280_humidity;BME280_pressure;Samples;Min_cycle;Max_cycle;Signal;HPM_P1;HPM_P2
2024/01/04 00:03:19;;;;;;;;;;;8.90;41.90;;;;;;5034180;28;19915;-84
2024/01/04 00:06:01;;;;;;;;;;;8.90;41.80;;;;;;5033479;28;19916;-83
2024/01/04 00:11:49;;;;;;;;;;;9.00;42.10;;;;;;5044014;28;19911;-84
2024/01/04 00:14:15;;;;;;;;;;;9.00;25.80;;;;;;5049206;28;19909;-84
2024/01/04 00:16:43;;;;;;;;;;;9.10;26.40;;;;;;5034589;28;19909;-83
2024/01/04 00:22:12;;;;;;;;;;;9.10;13.20;;;;;;5050033;28;20328;-84
2024/01/04 00:27:41;;;;;;;;;;;9.10;10.50;;;;;;5043025;28;20004;-77
2024/01/04 00:30:07;;;;;;;;;;;9.10;11.40;;;;;;5038766;28;20364;-77
2024/01/04 00:32:37;;;;;;;;;;;9.10;5.70;;;;;;5045979;28;19905;-78
2024/01/04 00:35:03;;;;;;;;;;;9.10;7.40;;;;;;5039539;28;19905;-78
2024/01/04 00:37:31;;;;;;;;;;;9.20;1.00;;;;;;5046608;28;20375;-78
2024/01/04 00:39:57;;;;;;;;;;;9.20;1.10;;;;;;5038866;28;19917;-78
2024/01/04 00:42:26;;;;;;;;;;;9.30;1.00;;;;;;5049044;28;19905;-79
2024/01/04 00:45:02;;;;;;;;;;;9.20;1.00;;;;;;5044758;28;19954;-79
2024/01/04 00:47:38;;;;;;;;;;;9.20;1.00;;;;;;5040926;28;20003;-78
2024/01/04 00:50:04;;;;;;;;;;;9.20;1.00;;;;;;5051017;28;19912;-78
2024/01/04 00:52:30;;;;;;;;;;;9.30;1.00;;;;;;5039942;28;19905;-78
2024/01/04 00:55:02;;;;;;;;;;;9.30;1.00;;;;;;5036508;28;19909;-78
2024/01/04 00:57:37;;;;;;;;;;;9.40;1.00;;;;;;5042390;28;19916;-84
2024/01/04 01:00:14;;;;;;;;;;;9.40;1.00;;;;;;5033942;28;20360;-83
2024/01/04 01:02:55;;;;;;;;;;;9.40;1.00;;;;;;5047671;28;19905;-86
2024/01/04 01:05:25;;;;;;;;;;;9.20;1.00;;;;;;5051612;28;19940;-84
2024/01/04 01:07:56;;;;;;;;;;;9.20;1.00;;;;;;5039755;28;20444;-84
2024/01/04 01:10:21;;;;;;;;;;;9.20;1.00;;;;;;5032833;28;19944;-83
2024/01/04 01:21:56;;;;;;;;;;;9.20;1.00;;;;;;5053219;28;20360;-82
2024/01/04 01:24:43;;;;;;;;;;;9.30;1.00;;;;;;5046983;28;19932;-83
2024/01/04 01:27:31;;;;;;;;;;;9.30;1.00;;;;;;5044864;28;20062;-83
2024/01/04 01:30:08;;;;;;;;;;;9.30;1.00;;;;;;5050845;28;19915;-78
2024/01/04 01:32:50;;;;;;;;;;;9.20;1.00;;;;;;5045456;28;19916;-78
2024/01/04 01:35:38;;;;;;;;;;;9.10;1.00;;;;;;5048870;28;19939;-78
2024/01/04 01:38:25;;;;;;;;;;;9.10;1.00;;;;;;5038343;28;20360;-78
2024/01/04 01:41:02;;;;;;;;;;;9.10;1.00;;;;;;5051650;28;19914;-78
2024/01/04 01:43:32;;;;;;;;;;;9.10;1.00;;;;;;5037941;28;19963;-79
2024/01/04 01:46:14;;;;;;;;;;;9.00;1.00;;;;;;5039118;28;20647;-79
2024/01/04 01:49:01;;;;;;;;;;;9.00;1.00;;;;;;5041015;28;19948;-77
2024/01/04 01:51:38;;;;;;;;;;;9.00;1.00;;;;;;5053202;28;20003;-76
2024/01/04 01:54:04;;;;;;;;;;;9.10;1.00;;;;;;5044758;28;19959;-79
2024/01/04 01:56:38;;;;;;;;;;;9.10;1.00;;;;;;5038413;28;20323;-77
2024/01/04 01:59:08;;;;;;;;;;;9.10;1.00;;;;;;5048643;28;19912;-78
2024/01/04 02:01:37;;;;;;;;;;;9.10;1.00;;;;;;5047715;28;20383;-78
2024/01/04 02:04:14;;;;;;;;;;;9.10;1.00;;;;;;5038340;28;19909;-79
2024/01/04 02:06:56;;;;;;;;;;;9.10;1.00;;;;;;5055856;28;19919;-77
2024/01/04 02:09:38;;;;;;;;;;;9.30;1.00;;;;;;5050351;28;20264;-78
2024/01/04 02:12:14;;;;;;;;;;;9.20;1.00;;;;;;5038704;28;19916;-78
2024/01/04 02:14:44;;;;;;;;;;;9.20;1.00;;;;;;5044237;28;19958;-78
2024/01/04 02:17:14;;;;;;;;;;;9.20;1.00;;;;;;5042464;28;20364;-78
2024/01/04 02:19:50;;;;;;;;;;;9.30;1.00;;;;;;5039146;28;19917;-78
2024/01/04 02:22:32;;;;;;;;;;;9.30;1.00;;;;;;5043905;28;19913;-78
2024/01/04 02:24:57;;;;;;;;;;;9.30;1.00;;;;;;5044334;28;19912;-78
2024/01/04 02:27:38;;;;;;;;;;;9.10;1.00;;;;;;5048007;28;19931;-78
2024/01/04 02:30:08;;;;;;;;;;;9.10;1.00;;;;;;5040214;28;19920;-80
2024/01/04 02:33:02;;;;;;;;;;;9.00;1.00;;;;;;5044646;28;19909;-78
2024/01/04 02:35:27;;;;;;;;;;;8.90;1.00;;;;;;5042870;28;19909;-77
2024/01/04 02:38:01;;;;;;;;;;;8.80;1.00;;;;;;5051148;28;19905;-78
2024/01/04 02:40:38;;;;;;;;;;;8.80;1.00;;;;;;5046747;28;19908;-78
2024/01/04 02:43:14;;;;;;;;;;;8.90;1.00;;;;;;5044849;28;19909;-78
2024/01/04 02:45:39;;;;;;;;;;;8.90;1.00;;;;;;5034108;28;19905;-78
2024/01/04 02:48:20;;;;;;;;;;;8.80;1.30;;;;;;5035928;28;20000;-78
2024/01/04 02:50:48;;;;;;;;;;;12.40;3.60;;;;;;5035389;28;19958;-78
2024/01/04 02:53:20;;;;;;;;;;;8.90;1.00;;;;;;5039958;28;19955;-78
2024/01/04 02:56:02;;;;;;;;;;;8.90;1.10;;;;;;5041715;28;19999;-78
2024/01/04 03:01:31;;;;;;;;;;;8.90;8.70;;;;;;5036182;28;19916;-84
2024/01/04 03:04:01;;;;;;;;;;;8.90;11.90;;;;;;5048797;28;19909;-84
2024/01/04 03:06:44;;;;;;;;;;;8.80;17.90;;;;;;5035605;28;19909;-84
2024/01/04 03:15:15;;;;;;;;;;;8.80;23.10;;;;;;5036385;28;19959;-79
2024/01/04 03:17:56;;;;;;;;;;;8.80;24.10;;;;;;5047854;28;19909;-78
2024/01/04 03:20:38;;;;;;;;;;;8.80;26.10;;;;;;5034558;28;19968;-78
2024/01/04 03:23:03;;;;;;;;;;;8.80;26.70;;;;;;5036312;28;20340;-78
2024/01/04 03:25:32;;;;;;;;;;;8.80;21.50;;;;;;5036364;28;19923;-78
2024/01/04 03:27:57;;;;;;;;;;;8.90;23.30;;;;;;5033013;28;19913;-78
2024/01/04 03:30:23;;;;;;;;;;;8.90;21.40;;;;;;5048228;28;19909;-78
2024/01/04 03:33:08;;;;;;;;;;;8.80;18.40;;;;;;5044307;28;20276;-77
2024/01/04 03:36:09;;;;;;;;;;;8.90;10.50;;;;;;5042489;28;19944;-78
2024/01/04 03:38:34;;;;;;;;;;;8.90;12.80;;;;;;5053136;28;19904;-77
2024/01/04 03:41:03;;;;;;;;;;;9.00;10.30;;;;;;5046050;28;19962;-78
2024/01/04 03:52:33;;;;;;;;;;;9.20;1.00;;;;;;5048831;28;20367;-84
2024/01/04 03:54:58;;;;;;;;;;;9.30;1.00;;;;;;5044270;28;19909;-84
2024/01/04 03:57:26;;;;;;;;;;;9.20;1.00;;;;;;5041564;28;19916;-84
2024/01/04 03:59:51;;;;;;;;;;;9.20;1.00;;;;;;5041947;28;19913;-78
2024/01/04 04:02:17;;;;;;;;;;;9.30;1.00;;;;;;5047428;28;19905;-79
2024/01/04 04:04:43;;;;;;;;;;;9.30;1.00;;;;;;5041453;28;19904;-77
2024/01/04 04:07:10;;;;;;;;;;;9.20;1.00;;;;;;5046922;28;19963;-77
2024/01/04 04:09:35;;;;;;;;;;;9.30;1.00;;;;;;5042766;28;20312;-78
2024/01/04 04:12:01;;;;;;;;;;;9.30;1.00;;;;;;5037338;28;19913;-77
2024/01/04 04:21:07;;;;;;;;;;;9.30;1.00;;;;;;5036670;28;20326;-84
2024/01/04 04:29:40;;;;;;;;;;;9.30;1.00;;;;;;5054476;28;19923;-77
2024/01/04 04:32:08;;;;;;;;;;;9.30;1.00;;;;;;5047952;28;19971;-78
2024/01/04 04:34:34;;;;;;;;;;;9.30;1.00;;;;;;5036754;28;19905;-77
2024/01/04 04:37:03;;;;;;;;;;;9.40;1.00;;;;;;5039582;28;19912;-77
2024/01/04 04:39:32;;;;;;;;;;;9.40;1.00;;;;;;5051471;28;20630;-78
2024/01/04 04:42:02;;;;;;;;;;;9.40;1.00;;;;;;5033778;28;19910;-78
2024/01/04 04:44:38;;;;;;;;;;;9.40;1.00;;;;;;5046614;28;19950;-83
2024/01/04 04:50:07;;;;;;;;;;;9.40;1.00;;;;;;5044834;28;19936;-84
2024/01/04 04:52:32;;;;;;;;;;;9.40;1.00;;;;;;5032150;28;19913;-83
2024/01/04 04:54:58;;;;;;;;;;;9.40;1.00;;;;;;5035999;28;19909;-84
2024/01/04 04:57:23;;;;;;;;;;;9.30;1.00;;;;;;5033049;28;19999;-84
2024/01/04 04:59:49;;;;;;;;;;;9.30;1.00;;;;;;5047463;28;19913;-83
2024/01/04 05:02:15;;;;;;;;;;;9.30;1.00;;;;;;5051285;28;19933;-84
2024/01/04 05:04:50;;;;;;;;;;;9.30;1.00;;;;;;5044721;28;19909;-84
2024/01/04 05:07:15;;;;;;;;;;;9.30;1.00;;;;;;5047252;28;19913;-84
2024/01/04 05:09:41;;;;;;;;;;;9.30;1.00;;;;;;5048743;28;19909;-83
2024/01/04 05:12:33;;;;;;;;;;;9.30;1.00;;;;;;5040194;28;19905;-84
2024/01/04 05:15:02;;;;;;;;;;;9.30;1.00;;;;;;5045232;28;20000;-79
2024/01/04 05:17:38;;;;;;;;;;;9.30;1.00;;;;;;5049638;28;19931;-79
2024/01/04 05:20:20;;;;;;;;;;;9.30;1.00;;;;;;5043191;28;19932;-79
2024/01/04 05:22:50;;;;;;;;;;;9.30;1.00;;;;;;5038268;28;19923;-78
2024/01/04 05:25:31;;;;;;;;;;;;;;;;;;5039614;28;19944;-79
2024/01/04 05:27:58;;;;;;;;;;;9.30;1.00;;;;;;5043810;28;19908;-78
2024/01/04 05:30:56;;;;;;;;;;;9.30;1.00;;;;;;5042773;28;20342;-84
2024/01/04 05:33:38;;;;;;;;;;;9.30;1.00;;;;;;5051349;28;19990;-83
2024/01/04 05:36:08;;;;;;;;;;;9.40;1.00;;;;;;5049694;28;20003;-84
2024/01/04 05:42:02;;;;;;;;;;;9.40;1.00;;;;;;5044708;28;19984;-83
2024/01/04 05:44:50;;;;;;;;;;;9.40;1.00;;;;;;5047218;28;19916;-82
2024/01/04 05:47:25;;;;;;;;;;;;;;;;;;5037740;28;20458;-84
2024/01/04 05:52:54;;;;;;;;;;;9.40;1.00;;;;;;5040020;28;19951;-85
2024/01/04 05:55:26;;;;;;;;;;;9.50;1.00;;;;;;5040430;28;19909;-84
2024/01/04 06:00:54;;;;;;;;;;;9.50;1.00;;;;;;5049927;28;19974;-84
2024/01/04 06:12:29;;;;;;;;;;;9.50;1.00;;;;;;5049580;28;19915;-84
2024/01/04 06:18:02;;;;;;;;;;;9.50;1.00;;;;;;5046259;28;19912;-82
2024/01/04 06:20:44;;;;;;;;;;;9.50;1.00;;;;;;5040950;28;20003;-82
2024/01/04 06:23:15;;;;;;;;;;;9.60;1.00;;;;;;5045919;28;19943;-82
2024/01/04 06:25:50;;;;;;;;;;;9.60;1.00;;;;;;5042922;28;20003;-83
2024/01/04 06:40:38;;;;;;;;;;;9.70;1.00;;;;;;5044658;28;20004;-84
2024/01/04 06:49:10;;;;;;;;;;;9.50;1.00;;;;;;5037738;28;19915;-84
2024/01/04 06:51:35;;;;;;;;;;;9.70;1.00;;;;;;5052661;28;19908;-85
2024/01/04 06:57:06;;;;;;;;;;;9.50;1.00;;;;;;5043843;28;20379;-84
2024/01/04 07:02:44;;;;;;;;;;;9.50;1.00;;;;;;5047955;28;19930;-85
2024/01/04 07:08:12;;;;;;;;;;;9.60;1.00;;;;;;5048829;28;19931;-83
2024/01/04 07:13:41;;;;;;;;;;;9.60;1.00;;;;;;5040333;28;19920;-82
2024/01/04 07:16:14;;;;;;;;;;;9.60;1.00;;;;;;5037365;28;19905;-81
2024/01/04 07:18:42;;;;;;;;;;;9.70;1.00;;;;;;5040959;28;19905;-78
2024/01/04 07:21:09;;;;;;;;;;;7.80;1.00;;;;;;5045056;28;20008;-77
2024/01/04 07:23:44;;;;;;;;;;;9.60;1.00;;;;;;5050723;28;19999;-77
2024/01/04 07:26:14;;;;;;;;;;;9.70;1.00;;;;;;5045684;28;19905;-77
2024/01/04 07:28:40;;;;;;;;;;;9.60;1.00;;;;;;5041400;28;19952;-77
2024/01/04 07:31:08;;;;;;;;;;;9.50;1.00;;;;;;5035041;28;19940;-79
2024/01/04 07:33:55;;;;;;;;;;;9.40;1.00;;;;;;5048118;28;19915;-77
2024/01/04 07:36:26;;;;;;;;;;;9.40;1.00;;;;;;5034650;28;19959;-77
2024/01/04 07:38:51;;;;;;;;;;;9.50;1.00;;;;;;5048087;28;19920;-77
2024/01/04 07:41:20;;;;;;;;;;;9.40;1.00;;;;;;5045191;28;19909;-76
2024/01/04 07:44:02;;;;;;;;;;;9.40;1.00;;;;;;5051616;28;19916;-77
2024/01/04 07:46:40;;;;;;;;;;;9.40;1.00;;;;;;5040615;28;19955;-78
2024/01/04 07:49:07;;;;;;;;;;;9.30;1.00;;;;;;5035507;28;19916;-77
2024/01/04 07:51:33;;;;;;;;;;;9.30;1.00;;;;;;5038986;28;19915;-78
2024/01/04 07:54:00;;;;;;;;;;;9.30;1.00;;;;;;5048996;28;19909;-78
2024/01/04 07:56:26;;;;;;;;;;;9.30;1.00;;;;;;5053618;28;19955;-77
2024/01/04 07:58:56;;;;;;;;;;;9.30;1.00;;;;;;5053994;28;19908;-78
2024/01/04 08:01:32;;;;;;;;;;;9.40;1.00;;;;;;5053587;28;19913;-78
2024/01/04 08:04:08;;;;;;;;;;;9.40;1.00;;;;;;5042088;28;19909;-78
2024/01/04 08:06:33;;;;;;;;;;;9.40;1.00;;;;;;5052969;28;19939;-77
2024/01/04 08:09:09;;;;;;;;;;;9.40;1.00;;;;;;5047225;28;19913;-77
2024/01/04 08:11:38;;;;;;;;;;;9.40;1.00;;;;;;5042846;28;20273;-77
2024/01/04 08:14:26;;;;;;;;;;;9.50;1.00;;;;;;5049474;28;19970;-77
2024/01/04 08:16:56;;;;;;;;;;;9.40;1.00;;;;;;5042865;28;19905;-81
2024/01/04 08:19:26;;;;;;;;;;;9.30;1.00;;;;;;5047910;28;19913;-80
2024/01/04 08:22:02;;;;;;;;;;;9.20;1.00;;;;;;5048535;28;19916;-81
2024/01/04 08:24:40;;;;;;;;;;;9.30;1.00;;;;;;5053173;28;19991;-80
2024/01/04 08:27:17;;;;;;;;;;;9.30;1.00;;;;;;5046545;28;19909;-81
2024/01/04 08:29:56;;;;;;;;;;;9.30;1.00;;;;;;5053196;28;19919;-81
2024/01/04 08:32:50;;;;;;;;;;;9.30;1.00;;;;;;5045431;28;19913;-81
2024/01/04 08:35:32;;;;;;;;;;;9.30;1.00;;;;;;5037557;28;20063;-81
2024/01/04 08:37:57;;;;;;;;;;;9.30;1.00;;;;;;5051161;28;19965;-81
2024/01/04 08:40:56;;;;;;;;;;;9.30;1.00;;;;;;5055805;28;19913;-80
2024/01/04 08:43:44;;;;;;;;;;;9.40;1.00;;;;;;5049472;28;19927;-82
2024/01/04 08:46:38;;;;;;;;;;;9.40;1.00;;;;;;5044203;28;19908;-81
2024/01/04 08:49:20;;;;;;;;;;;9.30;1.00;;;;;;5044975;28;19912;-81
2024/01/04 08:51:50;;;;;;;;;;;9.30;1.00;;;;;;5051024;28;19909;-81
2024/01/04 08:54:15;;;;;;;;;;;9.40;1.00;;;;;;5054300;28;19920;-80
2024/01/04 08:56:44;;;;;;;;;;;9.40;1.00;;;;;;5045792;28;19909;-81
2024/01/04 08:59:26;;;;;;;;;;;9.40;1.00;;;;;;5057309;28;19924;-80
2024/01/04 09:02:26;;;;;;;;;;;9.40;1.00;;;;;;5055740;28;19909;-80
2024/01/04 09:05:02;;;;;;;;;;;9.50;1.00;;;;;;5052580;28;19904;-81
2024/01/04 09:10:31;;;;;;;;;;;9.50;1.00;;;;;;5052930;28;19967;-81
2024/01/04 09:16:08;;;;;;;;;;;9.60;1.00;;;;;;5056889;28;19931;-80
2024/01/04 09:18:42;;;;;;;;;;;9.60;1.00;;;;;;5056572;28;19959;-80
2024/01/04 09:21:08;;;;;;;;;;;9.70;1.00;;;;;;5043284;28;19916;-79
2024/01/04 09:23:33;;;;;;;;;;;9.60;1.00;;;;;;5045619;28;19916;-80
2024/01/04 09:29:32;;;;;;;;;;;9.60;1.00;;;;;;5051309;28;20003;-80
2024/01/04 09:32:20;;;;;;;;;;;9.70;1.00;;;;;;5051671;28;19908;-80
2024/01/04 09:34:46;;;;;;;;;;;9.70;1.00;;;;;;5044100;28;19916;-80
2024/01/04 09:37:11;;;;;;;;;;;9.70;1.00;;;;;;5049252;28;19913;-80
2024/01/04 09:39:39;;;;;;;;;;;9.70;1.00;;;;;;5048506;28;19915;-80
2024/01/04 09:42:14;;;;;;;;;;;9.80;1.00;;;;;;5045282;28;19939;-80
2024/01/04 09:44:58;;;;;;;;;;;9.90;1.00;;;;;;5055095;28;19912;-80
2024/01/04 09:47:35;;;;;;;;;;;9.80;1.00;;;;;;5037188;28;19905;-80
2024/01/04 09:50:03;;;;;;;;;;;9.90;1.00;;;;;;5036565;28;20503;-81
2024/01/04 09:53:02;;;;;;;;;;;9.70;1.00;;;;;;5036460;28;19905;-81
2024/01/04 09:55:34;;;;;;;;;;;9.70;1.00;;;;;;5053873;28;19905;-80
2024/01/04 09:58:03;;;;;;;;;;;9.80;1.00;;;;;;5056385;28;19956;-80
2024/01/04 10:00:38;;;;;;;;;;;9.80;1.00;;;;;;5047421;28;19913;-81
2024/01/04 10:03:14;;;;;;;;;;;9.70;1.00;;;;;;5053688;28;19947;-78
2024/01/04 10:05:56;;;;;;;;;;;9.80;1.00;;;;;;5047106;28;19945;-78
2024/01/04 10:08:36;;;;;;;;;;;9.80;1.00;;;;;;5036554;28;19991;-78
2024/01/04 10:11:07;;;;;;;;;;;9.80;1.00;;;;;;5036119;28;20008;-78
2024/01/04 10:13:44;;;;;;;;;;;9.80;1.00;;;;;;5049978;28;20315;-78
2024/01/04 10:16:14;;;;;;;;;;;9.60;1.00;;;;;;5039600;28;20447;-78
2024/01/04 10:18:41;;;;;;;;;;;9.70;1.00;;;;;;5044220;28;19919;-81
2024/01/04 10:21:20;;;;;;;;;;;9.70;1.00;;;;;;5040568;28;19956;-81
2024/01/04 10:24:10;;;;;;;;;;;9.70;1.00;;;;;;5034711;28;19905;-81
2024/01/04 10:26:36;;;;;;;;;;;9.80;1.00;;;;;;5040782;28;20027;-80
2024/01/04 10:29:32;;;;;;;;;;;9.90;1.00;;;;;;5045692;28;19995;-80
2024/01/04 10:31:57;;;;;;;;;;;9.90;1.00;;;;;;5043951;28;19975;-80
2024/01/04 10:34:33;;;;;;;;;;;10.00;1.00;;;;;;5046808;28;20356;-80
2024/01/04 10:40:32;;;;;;;;;;;10.10;1.00;;;;;;5045265;28;19967;-81
2024/01/04 10:42:57;;;;;;;;;;;10.00;1.00;;;;;;5041042;28;19962;-77
2024/01/04 10:48:38;;;;;;;;;;;10.20;1.00;;;;;;5044289;28;19959;-82
2024/01/04 10:51:26;;;;;;;;;;;10.20;1.00;;;;;;5055744;28;19931;-78
2024/01/04 10:54:00;;;;;;;;;;;10.30;1.00;;;;;;5039811;28;19909;-80
2024/01/04 10:59:29;;;;;;;;;;;10.50;1.00;;;;;;5045856;28;19912;-88
2024/01/04 11:02:26;;;;;;;;;;;10.50;1.00;;;;;;5041176;28;19909;-78
2024/01/04 11:04:52;;;;;;;;;;;10.50;1.00;;;;;;5047843;28;19924;-80
2024/01/04 11:07:44;;;;;;;;;;;10.60;1.00;;;;;;5034805;28;19912;-80
2024/01/04 11:10:27;;;;;;;;;;;10.60;1.00;;;;;;5036080;28;19916;-79
2024/01/04 11:13:14;;;;;;;;;;;10.80;1.00;;;;;;5047151;28;19905;-80
2024/01/04 11:19:02;;;;;;;;;;;10.70;1.00;;;;;;5042850;28;20011;-78
2024/01/04 11:21:55;;;;;;;;;;;10.70;1.00;;;;;;5040852;28;19971;-79
2024/01/04 11:24:50;;;;;;;;;;;10.70;1.00;;;;;;5039140;28;19909;-77
2024/01/04 11:27:44;;;;;;;;;;;10.70;1.00;;;;;;5045329;28;19909;-78
2024/01/04 11:30:14;;;;;;;;;;;10.70;1.00;;;;;;5040064;28;19928;-78
2024/01/04 11:32:50;;;;;;;;;;;10.70;1.00;;;;;;5046048;28;20360;-78
2024/01/04 11:35:21;;;;;;;;;;;10.60;1.00;;;;;;5051490;28;20372;-78
2024/01/04 11:37:50;;;;;;;;;;;10.60;1.00;;;;;;5048684;28;19909;-78
2024/01/04 11:40:23;;;;;;;;;;;10.60;1.00;;;;;;5048660;28;20007;-77
2024/01/04 11:42:50;;;;;;;;;;;10.50;1.00;;;;;;5042744;28;19992;-78
2024/01/04 11:45:17;;;;;;;;;;;10.60;1.00;;;;;;5047402;28;19908;-77
2024/01/04 11:47:56;;;;;;;;;;;10.60;1.00;;;;;;5043903;28;19915;-78
2024/01/04 11:50:32;;;;;;;;;;;10.70;1.00;;;;;;5046431;28;19911;-79
2024/01/04 11:53:15;;;;;;;;;;;10.60;1.00;;;;;;5045538;28;19999;-82
2024/01/04 11:56:17;;;;;;;;;;;10.60;1.00;;;;;;5044373;28;19943;-78
2024/01/04 12:02:08;;;;;;;;;;;10.50;1.00;;;;;;5055515;28;19986;-75
2024/01/04 12:04:38;;;;;;;;;;;10.70;1.00;;;;;;5058025;28;19904;-76
2024/01/04 12:07:27;;;;;;;;;;;10.70;1.00;;;;;;5034597;28;19905;-82
2024/01/04 12:09:59;;;;;;;;;;;10.70;1.00;;;;;;5047630;28;20288;-80
2024/01/04 12:12:56;;;;;;;;;;;10.80;1.00;;;;;;5034552;28;19904;-81
2024/01/04 12:15:38;;;;;;;;;;;11.00;1.00;;;;;;5034078;28;19909;-80
2024/01/04 12:18:14;;;;;;;;;;;11.10;1.00;;;;;;5052637;28;19908;-77
2024/01/04 12:20:50;;;;;;;;;;;11.00;1.00;;;;;;5035163;28;20035;-79
2024/01/04 12:23:20;;;;;;;;;;;11.20;1.00;;;;;;5033731;28;19920;-76
2024/01/04 12:25:46;;;;;;;;;;;11.30;1.00;;;;;;5046816;28;19966;-78
2024/01/04 12:28:38;;;;;;;;;;;11.30;1.00;;;;;;5050383;28;19908;-79
2024/01/04 12:31:08;;;;;;;;;;;11.30;1.00;;;;;;5048167;28;19975;-80
2024/01/04 12:33:46;;;;;;;;;;;11.20;1.00;;;;;;5048417;28;19995;-80
2024/01/04 12:36:23;;;;;;;;;;;11.20;1.00;;;;;;5051590;28;19908;-79
2024/01/04 12:39:06;;;;;;;;;;;11.40;1.00;;;;;;5045894;28;19908;-77
2024/01/04 12:41:44;;;;;;;;;;;11.70;1.00;;;;;;5053295;28;19925;-79
2024/01/04 12:44:14;;;;;;;;;;;11.90;1.00;;;;;;5049267;28;19923;-78
2024/01/04 12:46:41;;;;;;;;;;;12.20;1.00;;;;;;5047476;28;19909;-78
2024/01/04 12:49:08;;;;;;;;;;;12.30;1.00;;;;;;5053776;28;20308;-78
2024/01/04 12:51:44;;;;;;;;;;;12.20;1.00;;;;;;5035693;28;19905;-78
2024/01/04 12:54:12;;;;;;;;;;;12.20;1.00;;;;;;5044874;28;19980;-78
2024/01/04 12:56:57;;;;;;;;;;;12.30;1.00;;;;;;5038169;28;19905;-78
2024/01/04 12:59:26;;;;;;;;;;;12.30;1.00;;;;;;5043552;28;19916;-78
2024/01/04 13:01:56;;;;;;;;;;;12.10;1.00;;;;;;5035786;28;19917;-78
2024/01/04 13:04:26;;;;;;;;;;;12.10;1.00;;;;;;5038447;28;19908;-78
2024/01/04 13:06:53;;;;;;;;;;;11.80;1.00;;;;;;5034434;28;19912;-79
2024/01/04 13:09:19;;;;;;;;;;;11.50;1.00;;;;;;5041376;28;19909;-79
2024/01/04 13:11:45;;;;;;;;;;;11.40;1.00;;;;;;5036724;28;19924;-79
2024/01/04 13:14:11;;;;;;;;;;;11.40;1.00;;;;;;5041188;28;19909;-80
2024/01/04 13:16:44;;;;;;;;;;;11.40;1.00;;;;;;5038683;28;19919;-79
2024/01/04 13:19:12;;;;;;;;;;;11.40;1.00;;;;;;5049707;28;19915;-79
2024/01/04 13:21:38;;;;;;;;;;;11.40;1.00;;;;;;5038701;28;20411;-79
2024/01/04 13:24:05;;;;;;;;;;;11.30;1.00;;;;;;5035712;28;19959;-79
2024/01/04 13:32:30;;;;;;;;;;;11.20;1.00;;;;;;5038921;28;19951;-78
2024/01/04 13:34:56;;;;;;;;;;;11.20;1.00;;;;;;5056101;28;19908;-78
2024/01/04 13:37:26;;;;;;;;;;;11.20;1.00;;;;;;5053991;28;19909;-79
2024/01/04 13:39:52;;;;;;;;;;;11.10;1.00;;;;;;5046081;28;19919;-78
2024/01/04 13:42:26;;;;;;;;;;;11.00;1.00;;;;;;5046663;28;19924;-80
2024/01/04 13:45:15;;;;;;;;;;;10.80;1.00;;;;;;5053259;28;20371;-80
2024/01/04 13:47:50;;;;;;;;;;;10.80;1.00;;;;;;5056788;28;19912;-79
2024/01/04 13:50:50;;;;;;;;;;;10.70;1.00;;;;;;5040336;28;20004;-78
2024/01/04 13:53:21;;;;;;;;;;;10.50;1.00;;;;;;5040366;28;19917;-77
2024/01/04 13:55:56;;;;;;;;;;;10.50;1.00;;;;;;5046629;28;19913;-77
2024/01/04 13:58:23;;;;;;;;;;;10.40;1.00;;;;;;5044238;28;20336;-78
2024/01/04 14:00:50;;;;;;;;;;;10.30;1.00;;;;;;5037420;28;19951;-78
2024/01/04 14:03:16;;;;;;;;;;;10.20;1.00;;;;;;5056057;28;19905;-77
2024/01/04 14:05:42;;;;;;;;;;;10.20;1.00;;;;;;5040358;28;19915;-77
2024/01/04 14:08:08;;;;;;;;;;;10.20;1.00;;;;;;5048703;28;19904;-77
2024/01/04 14:10:42;;;;;;;;;;;10.20;1.00;;;;;;5046391;28;19978;-83
2024/01/04 14:13:08;;;;;;;;;;;10.20;1.00;;;;;;5042139;28;19919;-78
2024/01/04 14:15:34;;;;;;;;;;;10.20;1.00;;;;;;5042005;28;19912;-77
2024/01/04 14:18:00;;;;;;;;;;;10.10;1.00;;;;;;5034523;28;19909;-78
2024/01/04 14:20:28;;;;;;;;;;;10.10;1.00;;;;;;5036870;28;19952;-76
2024/01/04 14:22:54;;;;;;;;;;;10.20;1.00;;;;;;5044534;28;19917;-77
2024/01/04 14:25:39;;;;;;;;;;;10.30;1.00;;;;;;5047287;28;19995;-77
2024/01/04 14:28:05;;;;;;;;;;;10.40;1.00;;;;;;5050082;28;20261;-77
2024/01/04 14:30:31;;;;;;;;;;;10.50;1.00;;;;;;5053356;28;19912;-78
2024/01/04 14:33:08;;;;;;;;;;;;;;;;;;5039295;28;19917;-78
2024/01/04 14:36:09;;;;;;;;;;;10.40;1.00;;;;;;5041291;28;19991;-78
2024/01/04 14:39:03;;;;;;;;;;;10.40;1.00;;;;;;5035785;28;19952;-77
2024/01/04 14:41:32;;;;;;;;;;;10.40;1.00;;;;;;5064441;28;19913;-76
2024/01/04 14:44:02;;;;;;;;;;;10.30;1.00;;;;;;5042940;28;19905;-75
2024/01/04 14:46:28;;;;;;;;;;;10.30;1.00;;;;;;5048014;28;19960;-76
2024/01/04 14:48:56;;;;;;;;;;;10.30;1.00;;;;;;5054930;28;19999;-78
2024/01/04 14:51:22;;;;;;;;;;;10.10;1.00;;;;;;5037685;28;20279;-80
2024/01/04 14:53:50;;;;;;;;;;;9.90;1.00;;;;;;5039557;28;19909;-78
2024/01/04 14:56:20;;;;;;;;;;;9.90;1.00;;;;;;5034015;28;19909;-78
2024/01/04 14:59:04;;;;;;;;;;;9.90;1.00;;;;;;5038626;28;19936;-78
2024/01/04 15:01:32;;;;;;;;;;;9.80;1.00;;;;;;5040614;28;19913;-78
2024/01/04 15:04:32;;;;;;;;;;;9.70;1.00;;;;;;5035316;28;19909;-79
2024/01/04 15:10:00;;;;;;;;;;;9.60;1.00;;;;;;5035315;28;19915;-79
2024/01/04 15:12:56;;;;;;;;;;;9.50;1.00;;;;;;5035937;28;19909;-77
2024/01/04 15:15:38;;;;;;;;;;;9.20;1.00;;;;;;5055015;28;19905;-77
2024/01/04 15:18:26;;;;;;;;;;;9.20;1.00;;;;;;5038024;28;20107;-76
2024/01/04 15:20:56;;;;;;;;;;;9.00;1.00;;;;;;5037983;28;20351;-75
2024/01/04 15:23:26;;;;;;;;;;;9.00;1.00;;;;;;5036293;28;20392;-76
2024/01/04 15:26:15;;;;;;;;;;;9.00;1.00;;;;;;5045975;28;19924;-76
2024/01/04 15:28:56;;;;;;;;;;;8.90;1.00;;;;;;5046377;28;19913;-76
2024/01/04 15:31:26;;;;;;;;;;;8.90;1.00;;;;;;5039671;28;19916;-77
2024/01/04 15:33:52;;;;;;;;;;;8.80;1.00;;;;;;5034734;28;19991;-76
2024/01/04 15:36:18;;;;;;;;;;;8.80;1.00;;;;;;5048709;28;19963;-77
2024/01/04 15:38:50;;;;;;;;;;;8.80;1.00;;;;;;5034617;28;19968;-78
2024/01/04 15:41:16;;;;;;;;;;;8.80;1.00;;;;;;5039557;28;19920;-79
2024/01/04 15:44:10;;;;;;;;;;;8.70;1.00;;;;;;5047710;28;19904;-78
2024/01/04 15:46:44;;;;;;;;;;;8.70;1.00;;;;;;5040381;28;19905;-79
2024/01/04 15:49:26;;;;;;;;;;;8.60;1.00;;;;;;5039747;28;19904;-78
2024/01/04 15:51:56;;;;;;;;;;;8.60;1.00;;;;;;5052919;28;20027;-78
2024/01/04 15:54:26;;;;;;;;;;;8.50;1.00;;;;;;5041135;28;20000;-77
2024/01/04 15:56:58;;;;;;;;;;;8.50;1.00;;;;;;5037701;28;19909;-77
2024/01/04 15:59:26;;;;;;;;;;;8.40;1.00;;;;;;5041944;28;20288;-80
2024/01/04 16:02:26;;;;;;;;;;;8.20;1.00;;;;;;5034797;28;19916;-78
2024/01/04 16:04:56;;;;;;;;;;;8.30;1.00;;;;;;5034892;28;19909;-78
2024/01/04 16:07:44;;;;;;;;;;;8.20;1.00;;;;;;5045201;28;19905;-81
2024/01/04 16:10:11;;;;;;;;;;;8.20;1.00;;;;;;5033958;28;20392;-76
2024/01/04 16:12:37;;;;;;;;;;;8.10;1.00;;;;;;5034180;28;19919;-77
2024/01/04 16:15:08;;;;;;;;;;;8.10;1.00;;;;;;5035776;28;19912;-78
2024/01/04 16:17:38;;;;;;;;;;;8.00;1.00;;;;;;5035824;28;19913;-78
2024/01/04 16:20:38;;;;;;;;;;;7.90;1.00;;;;;;5046809;28;20020;-78
2024/01/04 16:23:26;;;;;;;;;;;7.90;1.00;;;;;;5038877;28;20055;-78
2024/01/04 16:29:21;;;;;;;;;;;7.80;1.00;;;;;;5033812;28;19916;-82
2024/01/04 16:31:50;;;;;;;;;;;7.80;1.00;;;;;;5032625;28;19916;-81
2024/01/04 16:34:20;;;;;;;;;;;7.70;1.00;;;;;;5038981;28;19913;-80
2024/01/04 16:37:08;;;;;;;;;;;7.70;1.00;;;;;;5042458;28;20000;-80
2024/01/04 16:39:34;;;;;;;;;;;7.60;1.00;;;;;;5035100;28;19909;-80
2024/01/04 16:42:14;;;;;;;;;;;7.60;1.00;;;;;;5041900;28;19917;-80
2024/01/04 16:44:56;;;;;;;;;;;7.60;1.00;;;;;;5040947;28;19909;-80
2024/01/04 16:47:22;;;;;;;;;;;7.50;1.00;;;;;;5053765;28;19905;-80
2024/01/04 16:49:56;;;;;;;;;;;7.50;1.00;;;;;;5044818;28;19996;-80
2024/01/04 16:52:38;;;;;;;;;;;7.40;1.00;;;;;;5047272;28;19916;-78
2024/01/04 16:55:20;;;;;;;;;;;7.40;1.00;;;;;;5044810;28;19945;-78
2024/01/04 16:57:46;;;;;;;;;;;7.20;1.00;;;;;;5047886;28;20000;-79
2024/01/04 17:00:12;;;;;;;;;;;7.10;1.00;;;;;;5037771;28;19908;-79
2024/01/04 17:02:38;;;;;;;;;;;7.10;1.00;;;;;;5045510;28;19905;-79
2024/01/04 17:05:20;;;;;;;;;;;7.10;1.00;;;;;;5056262;28;19943;-78
2024/01/04 17:07:56;;;;;;;;;;;7.10;1.00;;;;;;5037850;28;19905;-77
2024/01/04 17:10:22;;;;;;;;;;;7.00;1.00;;;;;;5037318;28;19909;-77
2024/01/04 17:12:47;;;;;;;;;;;7.00;1.00;;;;;;5037700;28;19913;-77
2024/01/04 17:15:14;;;;;;;;;;;7.00;1.00;;;;;;5038230;28;19912;-76
2024/01/04 17:17:56;;;;;;;;;;;6.90;1.00;;;;;;5038879;28;19945;-77
2024/01/04 17:20:27;;;;;;;;;;;6.90;1.00;;;;;;5043642;28;19913;-78
2024/01/04 17:22:56;;;;;;;;;;;6.80;1.00;;;;;;5038000;28;19971;-77
2024/01/04 17:25:38;;;;;;;;;;;6.80;1.00;;;;;;5042929;28;19905;-78
2024/01/04 17:28:09;;;;;;;;;;;6.80;1.00;;;;;;5052372;28;19915;-79
2024/01/04 17:30:38;;;;;;;;;;;6.80;1.00;;;;;;5037105;28;19905;-80
2024/01/04 17:36:26;;;;;;;;;;;6.90;1.00;;;;;;5039346;28;19915;-80
2024/01/04 17:39:14;;;;;;;;;;;7.10;1.00;;;;;;5050602;28;19912;-81
2024/01/04 17:41:40;;;;;;;;;;;7.10;1.00;;;;;;5048904;28;19917;-77
2024/01/04 17:47:26;;;;;;;;;;;7.30;1.00;;;;;;5036586;28;19928;-79
2024/01/04 17:49:56;;;;;;;;;;;7.40;1.00;;;;;;5036953;28;19943;-79
2024/01/04 17:52:26;;;;;;;;;;;7.50;1.00;;;;;;5043983;28;19913;-79